Dieringer, Washington
Current Conditions -  °F | °C
As of 8:58 PM on Friday 19 Dec 2014 (Local Time) from KTCM Reporting Station
Scattered Clouds Scattered Clouds  
Wind Chill: 43°   Ceiling: Unl
Heat Index: 47°   Visibility: 10mi
Dew Point: 38°   Wind: 8mph
Humidity: 73%   Direction: 140°SE
Pressure: 29.9"   Gusts: NA
Location:  47.2018°N, 122.233°W
Report Text: KTCM 200458Z AUTO 14007KT 10SM SCT095 08/04 A2990 RMK AO2 SLP130 T00810035
Loading
Personal Weather Stations






























Interactive Weather Map New forecast layout! Learn more

10-Day Weather Forecast

Advertisements
Track Severe Weather on mobile